sensor_id;sensor_type;location;lat;lon;timestamp;P1;durP1;ratioP1;P2;durP2;ratioP2
17650;SDS011;26663;59.302;18.082;2023-08-06T00:03:00;8.10;;;4.22;;
17650;SDS011;26663;59.302;18.082;2023-08-06T00:06:04;14.10;;;4.55;;
17650;SDS011;26663;59.302;18.082;2023-08-06T00:09:08;8.35;;;5.00;;
17650;SDS011;26663;59.302;18.082;2023-08-06T00:12:12;13.73;;;4.80;;
17650;SDS011;26663;59.302;18.082;2023-08-06T00:15:16;17.92;;;4.70;;
17650;SDS011;26663;59.302;18.082;2023-08-06T00:18:21;15.77;;;4.57;;
17650;SDS011;26663;59.302;18.082;2023-08-06T00:21:25;18.98;;;4.60;;
17650;SDS011;26663;59.302;18.082;2023-08-06T00:24:29;20.95;;;4.97;;
17650;SDS011;26663;59.302;18.082;2023-08-06T00:27:32;15.43;;;5.03;;
17650;SDS011;26663;59.302;18.082;2023-08-06T00:30:36;15.25;;;5.20;;
17650;SDS011;26663;59.302;18.082;2023-08-06T00:33:41;12.15;;;5.00;;
17650;SDS011;26663;59.302;18.082;2023-08-06T00:36:46;10.93;;;5.07;;
17650;SDS011;26663;59.302;18.082;2023-08-06T00:39:49;10.52;;;4.95;;
17650;SDS011;26663;59.302;18.082;2023-08-06T00:42:53;6.35;;;5.03;;
17650;SDS011;26663;59.302;18.082;2023-08-06T00:45:57;13.10;;;5.20;;
17650;SDS011;26663;59.302;18.082;2023-08-06T00:49:02;14.60;;;5.07;;
17650;SDS011;26663;59.302;18.082;2023-08-06T00:52:07;21.05;;;5.43;;
17650;SDS011;26663;59.302;18.082;2023-08-06T00:55:11;21.33;;;5.22;;
17650;SDS011;26663;59.302;18.082;2023-08-06T00:58:15;21.25;;;6.20;;
17650;SDS011;26663;59.302;18.082;2023-08-06T01:01:20;18.77;;;5.40;;
17650;SDS011;26663;59.302;18.082;2023-08-06T01:04:25;20.02;;;5.85;;
17650;SDS011;26663;59.302;18.082;2023-08-06T01:07:33;11.32;;;5.10;;
17650;SDS011;26663;59.302;18.082;2023-08-06T01:10:46;6.18;;;4.63;;
17650;SDS011;26663;59.302;18.082;2023-08-06T01:13:59;7.50;;;4.15;;
17650;SDS011;26663;59.302;18.082;2023-08-06T01:17:08;5.80;;;3.63;;
17650;SDS011;26663;59.302;18.082;2023-08-06T01:20:13;5.47;;;3.58;;
17650;SDS011;26663;59.302;18.082;2023-08-06T01:23:18;8.13;;;4.15;;
17650;SDS011;26663;59.302;18.082;2023-08-06T01:26:24;4.93;;;4.20;;
17650;SDS011;26663;59.302;18.082;2023-08-06T01:29:32;5.28;;;3.78;;
17650;SDS011;26663;59.302;18.082;2023-08-06T01:32:39;11.45;;;3.80;;
17650;SDS011;26663;59.302;18.082;2023-08-06T01:35:46;4.35;;;3.58;;
17650;SDS011;26663;59.302;18.082;2023-08-06T01:38:53;11.13;;;4.22;;
17650;SDS011;26663;59.302;18.082;2023-08-06T01:41:57;11.55;;;4.65;;
17650;SDS011;26663;59.302;18.082;2023-08-06T01:45:01;12.82;;;4.15;;
17650;SDS011;26663;59.302;18.082;2023-08-06T01:48:05;10.23;;;4.20;;
17650;SDS011;26663;59.302;18.082;2023-08-06T01:51:08;5.97;;;4.43;;
17650;SDS011;26663;59.302;18.082;2023-08-06T01:54:14;8.65;;;4.22;;
17650;SDS011;26663;59.302;18.082;2023-08-06T01:57:19;7.10;;;4.50;;
17650;SDS011;26663;59.302;18.082;2023-08-06T02:00:23;13.13;;;4.80;;
17650;SDS011;26663;59.302;18.082;2023-08-06T02:03:27;11.25;;;4.07;;
17650;SDS011;26663;59.302;18.082;2023-08-06T02:06:31;11.85;;;4.63;;
17650;SDS011;26663;59.302;18.082;2023-08-06T02:09:36;6.72;;;4.10;;
17650;SDS011;26663;59.302;18.082;2023-08-06T02:12:40;7.63;;;4.20;;
17650;SDS011;26663;59.302;18.082;2023-08-06T02:15:44;6.40;;;4.00;;
17650;SDS011;26663;59.302;18.082;2023-08-06T02:18:49;7.85;;;4.30;;
17650;SDS011;26663;59.302;18.082;2023-08-06T02:21:54;7.97;;;4.30;;
17650;SDS011;26663;59.302;18.082;2023-08-06T02:24:59;7.13;;;4.05;;
17650;SDS011;26663;59.302;18.082;2023-08-06T02:28:03;7.80;;;4.20;;
17650;SDS011;26663;59.302;18.082;2023-08-06T02:31:07;3.92;;;3.63;;
17650;SDS011;26663;59.302;18.082;2023-08-06T02:34:12;4.65;;;4.22;;
17650;SDS011;26663;59.302;18.082;2023-08-06T02:37:15;8.40;;;4.45;;
17650;SDS011;26663;59.302;18.082;2023-08-06T02:40:21;5.68;;;4.10;;
17650;SDS011;26663;59.302;18.082;2023-08-06T02:43:25;4.60;;;4.20;;
17650;SDS011;26663;59.302;18.082;2023-08-06T02:46:29;6.07;;;3.90;;
17650;SDS011;26663;59.302;18.082;2023-08-06T02:49:33;4.28;;;3.95;;
17650;SDS011;26663;59.302;18.082;2023-08-06T02:52:38;6.60;;;4.13;;
17650;SDS011;26663;59.302;18.082;2023-08-06T02:55:46;4.13;;;3.83;;
17650;SDS011;26663;59.302;18.082;2023-08-06T02:58:54;4.05;;;3.83;;
17650;SDS011;26663;59.302;18.082;2023-08-06T03:02:07;8.15;;;4.15;;
17650;SDS011;26663;59.302;18.082;2023-08-06T03:05:29;6.70;;;4.35;;
17650;SDS011;26663;59.302;18.082;2023-08-06T03:08:33;4.47;;;4.13;;
17650;SDS011;26663;59.302;18.082;2023-08-06T03:11:39;4.97;;;4.05;;
17650;SDS011;26663;59.302;18.082;2023-08-06T03:14:48;7.57;;;4.45;;
17650;SDS011;26663;59.302;18.082;2023-08-06T03:17:52;6.75;;;3.95;;
17650;SDS011;26663;59.302;18.082;2023-08-06T03:21:00;7.00;;;4.45;;
17650;SDS011;26663;59.302;18.082;2023-08-06T03:24:05;4.72;;;4.05;;
17650;SDS011;26663;59.302;18.082;2023-08-06T03:27:12;6.18;;;4.22;;
17650;SDS011;26663;59.302;18.082;2023-08-06T03:30:18;8.98;;;4.15;;
17650;SDS011;26663;59.302;18.082;2023-08-06T03:33:23;4.25;;;3.97;;
17650;SDS011;26663;59.302;18.082;2023-08-06T03:36:27;4.50;;;4.10;;
17650;SDS011;26663;59.302;18.082;2023-08-06T03:39:31;5.97;;;4.07;;
17650;SDS011;26663;59.302;18.082;2023-08-06T03:42:37;3.83;;;3.63;;
17650;SDS011;26663;59.302;18.082;2023-08-06T03:45:41;6.40;;;4.25;;
17650;SDS011;26663;59.302;18.082;2023-08-06T03:48:45;5.93;;;3.97;;
17650;SDS011;26663;59.302;18.082;2023-08-06T03:51:49;7.85;;;4.65;;
17650;SDS011;26663;59.302;18.082;2023-08-06T03:54:53;4.43;;;4.03;;
17650;SDS011;26663;59.302;18.082;2023-08-06T03:57:58;5.88;;;4.30;;
17650;SDS011;26663;59.302;18.082;2023-08-06T04:01:02;5.13;;;3.88;;
17650;SDS011;26663;59.302;18.082;2023-08-06T04:04:16;4.70;;;4.35;;
17650;SDS011;26663;59.302;18.082;2023-08-06T04:07:20;4.43;;;4.05;;
17650;SDS011;26663;59.302;18.082;2023-08-06T04:10:23;4.60;;;4.28;;
17650;SDS011;26663;59.302;18.082;2023-08-06T04:13:28;5.43;;;4.45;;
17650;SDS011;26663;59.302;18.082;2023-08-06T04:16:32;4.40;;;4.10;;
17650;SDS011;26663;59.302;18.082;2023-08-06T04:19:36;5.00;;;4.40;;
17650;SDS011;26663;59.302;18.082;2023-08-06T04:22:40;4.32;;;4.03;;
17650;SDS011;26663;59.302;18.082;2023-08-06T04:25:44;4.95;;;4.30;;
17650;SDS011;26663;59.302;18.082;2023-08-06T04:28:50;4.07;;;3.70;;
17650;SDS011;26663;59.302;18.082;2023-08-06T04:31:54;4.03;;;3.85;;
17650;SDS011;26663;59.302;18.082;2023-08-06T04:34:58;4.88;;;4.57;;
17650;SDS011;26663;59.302;18.082;2023-08-06T04:38:03;4.72;;;4.30;;
17650;SDS011;26663;59.302;18.082;2023-08-06T04:41:06;4.57;;;4.20;;
17650;SDS011;26663;59.302;18.082;2023-08-06T04:44:12;7.65;;;5.35;;
17650;SDS011;26663;59.302;18.082;2023-08-06T04:47:16;6.35;;;4.70;;
17650;SDS011;26663;59.302;18.082;2023-08-06T04:50:20;4.63;;;4.35;;
17650;SDS011;26663;59.302;18.082;2023-08-06T04:53:23;5.18;;;4.32;;
17650;SDS011;26663;59.302;18.082;2023-08-06T04:56:27;4.85;;;4.45;;
17650;SDS011;26663;59.302;18.082;2023-08-06T04:59:33;5.07;;;4.65;;
17650;SDS011;26663;59.302;18.082;2023-08-06T05:02:36;4.93;;;4.53;;
17650;SDS011;26663;59.302;18.082;2023-08-06T05:05:41;5.20;;;4.70;;
17650;SDS011;26663;59.302;18.082;2023-08-06T05:08:45;4.75;;;4.47;;
17650;SDS011;26663;59.302;18.082;2023-08-06T05:11:48;5.63;;;4.45;;
17650;SDS011;26663;59.302;18.082;2023-08-06T05:14:54;4.63;;;4.32;;
17650;SDS011;26663;59.302;18.082;2023-08-06T05:17:58;6.07;;;4.18;;
17650;SDS011;26663;59.302;18.082;2023-08-06T05:21:02;4.72;;;4.40;;
17650;SDS011;26663;59.302;18.082;2023-08-06T05:24:06;4.65;;;4.30;;
17650;SDS011;26663;59.302;18.082;2023-08-06T05:27:09;6.93;;;4.32;;
17650;SDS011;26663;59.302;18.082;2023-08-06T05:30:14;6.82;;;4.35;;
17650;SDS011;26663;59.302;18.082;2023-08-06T05:33:18;6.28;;;4.22;;
17650;SDS011;26663;59.302;18.082;2023-08-06T05:36:22;4.20;;;3.90;;
17650;SDS011;26663;59.302;18.082;2023-08-06T05:39:29;4.57;;;4.10;;
17650;SDS011;26663;59.302;18.082;2023-08-06T05:42:32;3.67;;;3.47;;
17650;SDS011;26663;59.302;18.082;2023-08-06T05:45:38;3.70;;;3.50;;
17650;SDS011;26663;59.302;18.082;2023-08-06T05:48:42;5.30;;;4.88;;
17650;SDS011;26663;59.302;18.082;2023-08-06T05:51:45;4.10;;;3.80;;
17650;SDS011;26663;59.302;18.082;2023-08-06T05:54:50;5.68;;;3.58;;
17650;SDS011;26663;59.302;18.082;2023-08-06T05:57:54;4.15;;;3.25;;
17650;SDS011;26663;59.302;18.082;2023-08-06T06:00:59;3.65;;;3.47;;
17650;SDS011;26663;59.302;18.082;2023-08-06T06:04:03;3.80;;;3.58;;
17650;SDS011;26663;59.302;18.082;2023-08-06T06:07:07;5.10;;;3.70;;
17650;SDS011;26663;59.302;18.082;2023-08-06T06:10:11;4.60;;;4.20;;
17650;SDS011;26663;59.302;18.082;2023-08-06T06:13:14;3.10;;;3.00;;
17650;SDS011;26663;59.302;18.082;2023-08-06T06:16:20;4.40;;;3.33;;
17650;SDS011;26663;59.302;18.082;2023-08-06T06:19:23;5.50;;;3.63;;
17650;SDS011;26663;59.302;18.082;2023-08-06T06:22:30;3.60;;;3.40;;
17650;SDS011;26663;59.302;18.082;2023-08-06T06:25:34;3.97;;;3.60;;
17650;SDS011;26663;59.302;18.082;2023-08-06T06:28:37;4.13;;;3.70;;
17650;SDS011;26663;59.302;18.082;2023-08-06T06:31:43;4.03;;;3.40;;
17650;SDS011;26663;59.302;18.082;2023-08-06T06:34:46;3.40;;;3.05;;
17650;SDS011;26663;59.302;18.082;2023-08-06T06:37:50;4.70;;;3.35;;
17650;SDS011;26663;59.302;18.082;2023-08-06T06:40:54;3.08;;;2.97;;
17650;SDS011;26663;59.302;18.082;2023-08-06T06:43:58;3.20;;;3.10;;
17650;SDS011;26663;59.302;18.082;2023-08-06T06:47:03;4.90;;;3.00;;
17650;SDS011;26663;59.302;18.082;2023-08-06T06:50:07;2.90;;;2.67;;
17650;SDS011;26663;59.302;18.082;2023-08-06T06:53:12;4.50;;;2.78;;
17650;SDS011;26663;59.302;18.082;2023-08-06T06:56:15;4.30;;;3.42;;
17650;SDS011;26663;59.302;18.082;2023-08-06T06:59:19;3.83;;;2.80;;
17650;SDS011;26663;59.302;18.082;2023-08-06T07:02:24;3.53;;;3.05;;
17650;SDS011;26663;59.302;18.082;2023-08-06T07:05:28;4.47;;;2.95;;
17650;SDS011;26663;59.302;18.082;2023-08-06T07:08:32;2.58;;;2.47;;
17650;SDS011;26663;59.302;18.082;2023-08-06T07:11:36;3.10;;;2.90;;
17650;SDS011;26663;59.302;18.082;2023-08-06T07:14:39;5.65;;;3.55;;
17650;SDS011;26663;59.302;18.082;2023-08-06T07:17:45;7.93;;;3.17;;
17650;SDS011;26663;59.302;18.082;2023-08-06T07:20:48;3.30;;;3.10;;
17650;SDS011;26663;59.302;18.082;2023-08-06T07:23:52;6.13;;;3.60;;
17650;SDS011;26663;59.302;18.082;2023-08-06T07:26:56;4.70;;;3.08;;
17650;SDS011;26663;59.302;18.082;2023-08-06T07:30:00;3.40;;;3.10;;
17650;SDS011;26663;59.302;18.082;2023-08-06T07:33:05;2.25;;;2.25;;
17650;SDS011;26663;59.302;18.082;2023-08-06T07:36:10;3.88;;;3.20;;
17650;SDS011;26663;59.302;18.082;2023-08-06T07:39:14;6.13;;;3.20;;
17650;SDS011;26663;59.302;18.082;2023-08-06T07:42:19;6.93;;;2.90;;
17650;SDS011;26663;59.302;18.082;2023-08-06T07:45:23;4.78;;;3.20;;
17650;SDS011;26663;59.302;18.082;2023-08-06T07:48:30;3.42;;;3.13;;
17650;SDS011;26663;59.302;18.082;2023-08-06T07:51:34;4.78;;;3.30;;
17650;SDS011;26663;59.302;18.082;2023-08-06T07:54:38;6.10;;;3.70;;
17650;SDS011;26663;59.302;18.082;2023-08-06T07:57:41;3.53;;;3.28;;
17650;SDS011;26663;59.302;18.082;2023-08-06T08:00:45;3.72;;;3.47;;
17650;SDS011;26663;59.302;18.082;2023-08-06T08:03:51;4.85;;;3.50;;
17650;SDS011;26663;59.302;18.082;2023-08-06T08:06:55;4.18;;;3.70;;
17650;SDS011;26663;59.302;18.082;2023-08-06T08:09:59;3.25;;;2.95;;
17650;SDS011;26663;59.302;18.082;2023-08-06T08:13:02;4.80;;;3.17;;
17650;SDS011;26663;59.302;18.082;2023-08-06T08:16:07;3.80;;;3.45;;
17650;SDS011;26663;59.302;18.082;2023-08-06T08:19:12;5.43;;;3.53;;
17650;SDS011;26663;59.302;18.082;2023-08-06T08:22:16;3.63;;;3.35;;
17650;SDS011;26663;59.302;18.082;2023-08-06T08:25:20;3.17;;;2.97;;
17650;SDS011;26663;59.302;18.082;2023-08-06T08:28:24;3.42;;;2.83;;
17650;SDS011;26663;59.302;18.082;2023-08-06T08:31:27;7.82;;;3.05;;
17650;SDS011;26663;59.302;18.082;2023-08-06T08:34:33;3.08;;;2.92;;
17650;SDS011;26663;59.302;18.082;2023-08-06T08:37:36;2.92;;;2.80;;
17650;SDS011;26663;59.302;18.082;2023-08-06T08:40:42;3.30;;;3.10;;
17650;SDS011;26663;59.302;18.082;2023-08-06T08:43:50;3.60;;;3.30;;
17650;SDS011;26663;59.302;18.082;2023-08-06T08:46:54;4.15;;;3.08;;
17650;SDS011;26663;59.302;18.082;2023-08-06T08:49:59;3.20;;;3.00;;
17650;SDS011;26663;59.302;18.082;2023-08-06T08:53:04;5.53;;;3.13;;
17650;SDS011;26663;59.302;18.082;2023-08-06T08:56:08;4.45;;;2.92;;
17650;SDS011;26663;59.302;18.082;2023-08-06T08:59:12;6.25;;;3.20;;
17650;SDS011;26663;59.302;18.082;2023-08-06T09:02:16;3.80;;;3.20;;
17650;SDS011;26663;59.302;18.082;2023-08-06T09:05:22;3.33;;;3.08;;
17650;SDS011;26663;59.302;18.082;2023-08-06T09:08:27;4.05;;;3.22;;
17650;SDS011;26663;59.302;18.082;2023-08-06T09:11:36;3.35;;;2.95;;
17650;SDS011;26663;59.302;18.082;2023-08-06T09:14:43;4.28;;;3.05;;
17650;SDS011;26663;59.302;18.082;2023-08-06T09:17:47;6.43;;;2.83;;
17650;SDS011;26663;59.302;18.082;2023-08-06T09:20:53;4.57;;;3.08;;
17650;SDS011;26663;59.302;18.082;2023-08-06T09:23:58;6.18;;;2.97;;
17650;SDS011;26663;59.302;18.082;2023-08-06T09:27:02;5.65;;;3.30;;
17650;SDS011;26663;59.302;18.082;2023-08-06T09:30:07;3.47;;;3.17;;
17650;SDS011;26663;59.302;18.082;2023-08-06T09:33:10;3.85;;;3.17;;
17650;SDS011;26663;59.302;18.082;2023-08-06T09:36:17;4.15;;;3.30;;
17650;SDS011;26663;59.302;18.082;2023-08-06T09:39:25;3.70;;;3.22;;
17650;SDS011;26663;59.302;18.082;2023-08-06T09:42:30;3.53;;;3.05;;
17650;SDS011;26663;59.302;18.082;2023-08-06T09:45:34;4.18;;;3.30;;
17650;SDS011;26663;59.302;18.082;2023-08-06T09:48:38;3.83;;;3.50;;
17650;SDS011;26663;59.302;18.082;2023-08-06T09:51:44;5.50;;;3.63;;
17650;SDS011;26663;59.302;18.082;2023-08-06T09:54:48;5.25;;;2.95;;
17650;SDS011;26663;59.302;18.082;2023-08-06T09:57:53;16.52;;;3.38;;
17650;SDS011;26663;59.302;18.082;2023-08-06T10:00:57;5.25;;;3.20;;
17650;SDS011;26663;59.302;18.082;2023-08-06T10:04:01;3.65;;;2.60;;
17650;SDS011;26663;59.302;18.082;2023-08-06T10:07:25;3.33;;;3.10;;
17650;SDS011;26663;59.302;18.082;2023-08-06T10:10:29;3.80;;;3.33;;
17650;SDS011;26663;59.302;18.082;2023-08-06T10:13:33;3.30;;;2.90;;
17650;SDS011;26663;59.302;18.082;2023-08-06T10:16:38;5.82;;;3.55;;
17650;SDS011;26663;59.302;18.082;2023-08-06T10:19:44;5.18;;;3.67;;
17650;SDS011;26663;59.302;18.082;2023-08-06T10:23:00;4.75;;;3.10;;
17650;SDS011;26663;59.302;18.082;2023-08-06T10:26:05;5.68;;;3.42;;
17650;SDS011;26663;59.302;18.082;2023-08-06T10:32:49;6.15;;;3.22;;
17650;SDS011;26663;59.302;18.082;2023-08-06T10:35:53;3.78;;;3.30;;
17650;SDS011;26663;59.302;18.082;2023-08-06T10:39:08;5.57;;;3.85;;
17650;SDS011;26663;59.302;18.082;2023-08-06T10:42:31;3.95;;;2.92;;
17650;SDS011;26663;59.302;18.082;2023-08-06T10:45:35;5.25;;;3.33;;
17650;SDS011;26663;59.302;18.082;2023-08-06T10:48:40;6.50;;;3.10;;
17650;SDS011;26663;59.302;18.082;2023-08-06T10:51:44;3.40;;;3.20;;
17650;SDS011;26663;59.302;18.082;2023-08-06T10:54:50;5.13;;;3.28;;
17650;SDS011;26663;59.302;18.082;2023-08-06T10:57:53;3.78;;;3.03;;
17650;SDS011;26663;59.302;18.082;2023-08-06T11:00:58;5.60;;;3.45;;
17650;SDS011;26663;59.302;18.082;2023-08-06T11:04:02;3.00;;;2.90;;
17650;SDS011;26663;59.302;18.082;2023-08-06T11:07:07;3.75;;;3.33;;
17650;SDS011;26663;59.302;18.082;2023-08-06T11:10:12;5.20;;;3.22;;
17650;SDS011;26663;59.302;18.082;2023-08-06T11:13:17;3.75;;;3.40;;
17650;SDS011;26663;59.302;18.082;2023-08-06T11:16:22;5.38;;;3.40;;
17650;SDS011;26663;59.302;18.082;2023-08-06T11:19:27;7.43;;;3.95;;
17650;SDS011;26663;59.302;18.082;2023-08-06T11:22:30;5.07;;;4.07;;
17650;SDS011;26663;59.302;18.082;2023-08-06T11:25:37;9.65;;;3.90;;
17650;SDS011;26663;59.302;18.082;2023-08-06T11:28:47;6.90;;;4.10;;
17650;SDS011;26663;59.302;18.082;2023-08-06T11:31:51;3.95;;;3.40;;
17650;SDS011;26663;59.302;18.082;2023-08-06T11:34:55;4.35;;;3.67;;
17650;SDS011;26663;59.302;18.082;2023-08-06T11:37:59;7.63;;;3.83;;
17650;SDS011;26663;59.302;18.082;2023-08-06T11:41:05;4.15;;;3.92;;
17650;SDS011;26663;59.302;18.082;2023-08-06T11:44:10;3.90;;;3.65;;
17650;SDS011;26663;59.302;18.082;2023-08-06T11:47:18;6.65;;;3.97;;
17650;SDS011;26663;59.302;18.082;2023-08-06T11:50:23;7.43;;;4.45;;
17650;SDS011;26663;59.302;18.082;2023-08-06T11:53:27;4.53;;;4.05;;
17650;SDS011;26663;59.302;18.082;2023-08-06T11:56:52;6.68;;;4.55;;
17650;SDS011;26663;59.302;18.082;2023-08-06T11:59:55;12.10;;;5.07;;
17650;SDS011;26663;59.302;18.082;2023-08-06T12:02:59;5.03;;;4.32;;
17650;SDS011;26663;59.302;18.082;2023-08-06T12:06:04;4.90;;;4.43;;
17650;SDS011;26663;59.302;18.082;2023-08-06T12:09:08;8.30;;;5.10;;
17650;SDS011;26663;59.302;18.082;2023-08-06T12:12:13;8.35;;;4.40;;
17650;SDS011;26663;59.302;18.082;2023-08-06T12:15:18;9.40;;;4.70;;
17650;SDS011;26663;59.302;18.082;2023-08-06T12:18:22;7.90;;;4.57;;
17650;SDS011;26663;59.302;18.082;2023-08-06T12:21:26;5.55;;;5.05;;
17650;SDS011;26663;59.302;18.082;2023-08-06T12:24:30;6.47;;;4.95;;
17650;SDS011;26663;59.302;18.082;2023-08-06T12:27:35;6.38;;;4.97;;
17650;SDS011;26663;59.302;18.082;2023-08-06T12:30:39;6.63;;;4.82;;
17650;SDS011;26663;59.302;18.082;2023-08-06T12:33:45;5.35;;;4.80;;
17650;SDS011;26663;59.302;18.082;2023-08-06T12:36:49;5.95;;;4.75;;
17650;SDS011;26663;59.302;18.082;2023-08-06T12:39:52;7.90;;;4.88;;
17650;SDS011;26663;59.302;18.082;2023-08-06T12:42:58;5.65;;;4.43;;
17650;SDS011;26663;59.302;18.082;2023-08-06T12:46:02;32.38;;;6.25;;
17650;SDS011;26663;59.302;18.082;2023-08-06T12:49:06;5.38;;;4.57;;
17650;SDS011;26663;59.302;18.082;2023-08-06T12:52:10;5.53;;;4.82;;
17650;SDS011;26663;59.302;18.082;2023-08-06T12:55:17;7.60;;;4.55;;
17650;SDS011;26663;59.302;18.082;2023-08-06T12:58:22;5.57;;;5.00;;
17650;SDS011;26663;59.302;18.082;2023-08-06T13:01:26;7.22;;;4.80;;
17650;SDS011;26663;59.302;18.082;2023-08-06T13:04:30;7.70;;;5.30;;
17650;SDS011;26663;59.302;18.082;2023-08-06T13:07:36;5.40;;;4.97;;
17650;SDS011;26663;59.302;18.082;2023-08-06T13:10:40;5.32;;;4.93;;
17650;SDS011;26663;59.302;18.082;2023-08-06T13:13:45;6.53;;;5.13;;
17650;SDS011;26663;59.302;18.082;2023-08-06T13:16:49;5.65;;;5.15;;
17650;SDS011;26663;59.302;18.082;2023-08-06T13:19:53;6.97;;;5.25;;
17650;SDS011;26663;59.302;18.082;2023-08-06T13:22:57;5.40;;;5.00;;
17650;SDS011;26663;59.302;18.082;2023-08-06T13:26:03;6.40;;;5.50;;
17650;SDS011;26663;59.302;18.082;2023-08-06T13:29:08;5.43;;;5.00;;
17650;SDS011;26663;59.302;18.082;2023-08-06T13:32:12;6.25;;;5.40;;
17650;SDS011;26663;59.302;18.082;2023-08-06T13:35:16;6.20;;;4.60;;
17650;SDS011;26663;59.302;18.082;2023-08-06T13:38:20;5.82;;;4.70;;
17650;SDS011;26663;59.302;18.082;2023-08-06T13:41:23;6.70;;;5.03;;
17650;SDS011;26663;59.302;18.082;2023-08-06T13:44:29;5.47;;;5.00;;
17650;SDS011;26663;59.302;18.082;2023-08-06T13:47:33;5.97;;;5.20;;
17650;SDS011;26663;59.302;18.082;2023-08-06T13:50:37;5.55;;;4.82;;
17650;SDS011;26663;59.302;18.082;2023-08-06T13:53:42;5.70;;;4.97;;
17650;SDS011;26663;59.302;18.082;2023-08-06T13:56:45;7.65;;;5.43;;
17650;SDS011;26663;59.302;18.082;2023-08-06T13:59:51;5.60;;;4.95;;
17650;SDS011;26663;59.302;18.082;2023-08-06T14:02:55;5.50;;;5.00;;
17650;SDS011;26663;59.302;18.082;2023-08-06T14:05:59;5.43;;;5.00;;
17650;SDS011;26663;59.302;18.082;2023-08-06T14:09:03;7.28;;;6.53;;
17650;SDS011;26663;59.302;18.082;2023-08-06T14:12:06;5.90;;;5.30;;
17650;SDS011;26663;59.302;18.082;2023-08-06T14:15:11;9.48;;;6.07;;
17650;SDS011;26663;59.302;18.082;2023-08-06T14:18:16;7.97;;;6.20;;
17650;SDS011;26663;59.302;18.082;2023-08-06T14:21:19;7.47;;;5.70;;
17650;SDS011;26663;59.302;18.082;2023-08-06T14:24:23;9.68;;;6.13;;
17650;SDS011;26663;59.302;18.082;2023-08-06T14:27:27;5.65;;;5.25;;
17650;SDS011;26663;59.302;18.082;2023-08-06T14:30:33;6.80;;;5.72;;
17650;SDS011;26663;59.302;18.082;2023-08-06T14:33:37;6.20;;;5.70;;
17650;SDS011;26663;59.302;18.082;2023-08-06T14:36:41;6.05;;;5.43;;
17650;SDS011;26663;59.302;18.082;2023-08-06T14:39:44;5.78;;;5.40;;
17650;SDS011;26663;59.302;18.082;2023-08-06T14:42:48;7.15;;;5.68;;
17650;SDS011;26663;59.302;18.082;2023-08-06T14:45:53;10.07;;;6.00;;
17650;SDS011;26663;59.302;18.082;2023-08-06T14:48:57;8.45;;;6.15;;
17650;SDS011;26663;59.302;18.082;2023-08-06T14:52:01;6.13;;;5.60;;
17650;SDS011;26663;59.302;18.082;2023-08-06T14:55:05;6.35;;;5.30;;
17650;SDS011;26663;59.302;18.082;2023-08-06T14:58:09;5.60;;;5.13;;
17650;SDS011;26663;59.302;18.082;2023-08-06T15:01:14;5.18;;;4.72;;
17650;SDS011;26663;59.302;18.082;2023-08-06T15:04:18;12.20;;;5.50;;
17650;SDS011;26663;59.302;18.082;2023-08-06T15:07:22;6.80;;;6.20;;
17650;SDS011;26663;59.302;18.082;2023-08-06T15:10:26;6.18;;;5.57;;
17650;SDS011;26663;59.302;18.082;2023-08-06T15:13:30;6.97;;;6.45;;
17650;SDS011;26663;59.302;18.082;2023-08-06T15:16:35;6.97;;;5.63;;
17650;SDS011;26663;59.302;18.082;2023-08-06T15:19:38;8.45;;;6.40;;
17650;SDS011;26663;59.302;18.082;2023-08-06T15:22:42;7.33;;;6.67;;
17650;SDS011;26663;59.302;18.082;2023-08-06T15:25:46;8.27;;;6.53;;
17650;SDS011;26663;59.302;18.082;2023-08-06T15:28:50;8.13;;;6.50;;
17650;SDS011;26663;59.302;18.082;2023-08-06T15:31:55;6.55;;;5.90;;
17650;SDS011;26663;59.302;18.082;2023-08-06T15:35:00;7.45;;;6.60;;
17650;SDS011;26663;59.302;18.082;2023-08-06T15:38:06;9.05;;;5.10;;
17650;SDS011;26663;59.302;18.082;2023-08-06T15:41:10;6.03;;;5.50;;
17650;SDS011;26663;59.302;18.082;2023-08-06T15:44:13;10.32;;;5.68;;
17650;SDS011;26663;59.302;18.082;2023-08-06T15:47:19;6.35;;;5.85;;
17650;SDS011;26663;59.302;18.082;2023-08-06T15:50:22;7.00;;;5.28;;
17650;SDS011;26663;59.302;18.082;2023-08-06T15:53:26;6.40;;;5.22;;
17650;SDS011;26663;59.302;18.082;2023-08-06T15:56:30;7.40;;;5.60;;
17650;SDS011;26663;59.302;18.082;2023-08-06T15:59:34;6.10;;;5.53;;
17650;SDS011;26663;59.302;18.082;2023-08-06T16:02:39;8.73;;;7.10;;
17650;SDS011;26663;59.302;18.082;2023-08-06T16:05:43;10.95;;;5.93;;
17650;SDS011;26663;59.302;18.082;2023-08-06T16:08:47;9.32;;;5.53;;
17650;SDS011;26663;59.302;18.082;2023-08-06T16:11:51;7.55;;;5.80;;
17650;SDS011;26663;59.302;18.082;2023-08-06T16:14:55;7.32;;;5.07;;
17650;SDS011;26663;59.302;18.082;2023-08-06T16:18:00;8.90;;;6.07;;
17650;SDS011;26663;59.302;18.082;2023-08-06T16:21:04;6.45;;;5.80;;
17650;SDS011;26663;59.302;18.082;2023-08-06T16:24:08;5.93;;;5.43;;
17650;SDS011;26663;59.302;18.082;2023-08-06T16:27:12;10.75;;;5.97;;
17650;SDS011;26663;59.302;18.082;2023-08-06T16:30:16;10.23;;;5.78;;
17650;SDS011;26663;59.302;18.082;2023-08-06T16:33:21;9.85;;;6.40;;
17650;SDS011;26663;59.302;18.082;2023-08-06T16:36:25;6.38;;;5.78;;
17650;SDS011;26663;59.302;18.082;2023-08-06T16:39:29;6.90;;;6.05;;
17650;SDS011;26663;59.302;18.082;2023-08-06T16:42:33;9.55;;;5.40;;
17650;SDS011;26663;59.302;18.082;2023-08-06T16:45:36;6.18;;;5.68;;
17650;SDS011;26663;59.302;18.082;2023-08-06T16:48:43;8.27;;;5.93;;
17650;SDS011;26663;59.302;18.082;2023-08-06T16:51:46;6.68;;;5.47;;
17650;SDS011;26663;59.302;18.082;2023-08-06T16:54:50;6.47;;;5.88;;
17650;SDS011;26663;59.302;18.082;2023-08-06T16:57:54;6.47;;;5.85;;
17650;SDS011;26663;59.302;18.082;2023-08-06T17:00:58;6.78;;;5.32;;
17650;SDS011;26663;59.302;18.082;2023-08-06T17:04:08;5.93;;;5.40;;
17650;SDS011;26663;59.302;18.082;2023-08-06T17:07:13;6.13;;;5.57;;
17650;SDS011;26663;59.302;18.082;2023-08-06T17:10:17;8.43;;;5.63;;
17650;SDS011;26663;59.302;18.082;2023-08-06T17:13:23;9.88;;;5.50;;
17650;SDS011;26663;59.302;18.082;2023-08-06T17:16:27;5.97;;;5.55;;
17650;SDS011;26663;59.302;18.082;2023-08-06T17:19:33;5.50;;;5.18;;
17650;SDS011;26663;59.302;18.082;2023-08-06T17:22:38;6.38;;;5.35;;
17650;SDS011;26663;59.302;18.082;2023-08-06T17:25:43;7.35;;;5.88;;
17650;SDS011;26663;59.302;18.082;2023-08-06T17:28:47;5.80;;;5.40;;
17650;SDS011;26663;59.302;18.082;2023-08-06T17:31:51;7.85;;;5.43;;
17650;SDS011;26663;59.302;18.082;2023-08-06T17:34:56;7.32;;;5.70;;
17650;SDS011;26663;59.302;18.082;2023-08-06T17:38:00;7.03;;;6.35;;
17650;SDS011;26663;59.302;18.082;2023-08-06T17:41:04;6.80;;;6.20;;
17650;SDS011;26663;59.302;18.082;2023-08-06T17:44:08;6.15;;;5.60;;
17650;SDS011;26663;59.302;18.082;2023-08-06T17:47:12;7.65;;;5.88;;
17650;SDS011;26663;59.302;18.082;2023-08-06T17:50:37;8.95;;;7.70;;
17650;SDS011;26663;59.302;18.082;2023-08-06T17:53:42;9.10;;;7.30;;
17650;SDS011;26663;59.302;18.082;2023-08-06T17:56:46;9.45;;;7.35;;
17650;SDS011;26663;59.302;18.082;2023-08-06T17:59:50;9.35;;;7.40;;
17650;SDS011;26663;59.302;18.082;2023-08-06T18:02:53;8.02;;;7.28;;
17650;SDS011;26663;59.302;18.082;2023-08-06T18:05:59;7.80;;;7.10;;
17650;SDS011;26663;59.302;18.082;2023-08-06T18:09:03;9.43;;;7.40;;
17650;SDS011;26663;59.302;18.082;2023-08-06T18:12:07;8.73;;;7.10;;
17650;SDS011;26663;59.302;18.082;2023-08-06T18:15:11;8.40;;;6.68;;
17650;SDS011;26663;59.302;18.082;2023-08-06T18:18:15;7.83;;;6.90;;
17650;SDS011;26663;59.302;18.082;2023-08-06T18:21:21;7.93;;;7.00;;